WetterOnline ( https://www.wetteronline.de )

Wetter aktuell Frankfurt am Main

Aktuelles Wetter: Offenbach (119m)

6-stündlich | Neueste Meldungen
Ortszeit Temperatur Wetter
Sa, 28.05. 8:00 12.0° C fast wolkenlos
Sa, 28.05. 2:00 12.1° C wolkig
Fr, 27.05. 20:00 19.1° C leicht bewölkt
Fr, 27.05. 14:00 17.9° C bedeckt
Fr, 27.05. 8:00 15.7° C wolkig
Fr, 27.05. 2:00 15.8° C wolkig
Do, 26.05. 20:00 20.6° C bewölkt
Do, 26.05. 14:00 20.8° C wolkig
Ortszeit Temperatur Wetter
Sa, 28.05. 9:00 12.3° C wolkig
Sa, 28.05. 8:50 12.3° C wolkig
Sa, 28.05. 8:40 12.1° C leicht bewölkt
Sa, 28.05. 8:30 12.7° C fast wolkenlos
Sa, 28.05. 8:20 12.7° C fast wolkenlos
Sa, 28.05. 8:10 12.2° C fast wolkenlos
Sa, 28.05. 8:00 12.0° C fast wolkenlos
Sa, 28.05. 7:30 10.9° C leicht bewölkt
Sa, 28.05. 7:00 10.1° C Dunst
Sa, 28.05. 6:30 10.1° C wolkig
Sa, 28.05. 6:00 9.5° C wolkig
Ortszeit Relative Feuchte Sichtweite
Sa, 28.05. 8:00 59% 65 km
Sa, 28.05. 2:00 54% 40 km
Fr, 27.05. 20:00 40% 50 km
Fr, 27.05. 14:00 62% >70 km
Fr, 27.05. 8:00 72% 50 km
Fr, 27.05. 2:00 68% 55 km
Do, 26.05. 20:00 48% 50 km
Do, 26.05. 14:00 43% 35 km
Ortszeit Relative Feuchte Sichtweite
Sa, 28.05. 9:00 61% 60 km
Sa, 28.05. 8:50 61% -
Sa, 28.05. 8:40 60% -
Sa, 28.05. 8:30 60% 55 km
Sa, 28.05. 8:20 60% -
Sa, 28.05. 8:10 58% -
Sa, 28.05. 8:00 59% 65 km
Sa, 28.05. 7:30 65% 35 km
Sa, 28.05. 7:00 66% 4.8 km
Sa, 28.05. 6:30 65% 40 km
Sa, 28.05. 6:00 68% 45 km
Ortszeit Niederschlagsmenge Niederschlagsart
Sa, 28.05. 8:00 0.0 l/m2 in 12 Std. -
Sa, 28.05. 2:00 0.0 l/m2 in 6 Std. -
Fr, 27.05. 20:00 0.1 l/m2 in 12 Std. Regen
Fr, 27.05. 14:00 0.0 l/m2 in 6 Std. -
Fr, 27.05. 8:00 0.0 l/m2 in 12 Std. -
Fr, 27.05. 2:00 0.0 l/m2 in 6 Std. -
Do, 26.05. 20:00 0.1 l/m2 in 12 Std. Niederschlag
Do, 26.05. 14:00 0.0 l/m2 in 6 Std. -
Ortszeit Niederschlagsmenge Niederschlagsart
Sa, 28.05. 9:00 0.0 l/m2 in 1 Std. -
Sa, 28.05. 8:50 keine Meldung -
Sa, 28.05. 8:40 keine Meldung -
Sa, 28.05. 8:30 0.0 l/m2 in 1 Std. -
Sa, 28.05. 8:20 keine Meldung -
Sa, 28.05. 8:10 keine Meldung -
Sa, 28.05. 8:00 0.0 l/m2 in 1 Std. -
Sa, 28.05. 7:30 0.0 l/m2 in 1 Std. -
Sa, 28.05. 7:00 0.0 l/m2 in 1 Std. -
Sa, 28.05. 6:30 0.0 l/m2 in 1 Std. -
Sa, 28.05. 6:00 0.0 l/m2 in 1 Std. -
Ortszeit Stärke Spitze Richtung
km/h Bft. km/h Grad Sektor
Sa, 28.05. 8:00 13 3 24 240° SW
Sa, 28.05. 2:00 7 2 39 320° NW
Fr, 27.05. 20:00 17 3 39 310° NW
Fr, 27.05. 14:00 17 3 41 270° W
Fr, 27.05. 8:00 9 2 31 220° SW
Fr, 27.05. 2:00 7 2 24 230° SW
Do, 26.05. 20:00 9 2 35 220° SW
Do, 26.05. 14:00 13 3 31 250° W
Ortszeit Stärke Spitze Richtung
km/h Bft. km/h Grad Sektor
Sa, 28.05. 9:00 11 2 29 240° SW
Sa, 28.05. 8:50 11 2 - 240° SW
Sa, 28.05. 8:40 13 3 - 240° SW
Sa, 28.05. 8:30 13 3 30 240° SW
Sa, 28.05. 8:20 13 3 - 240° SW
Sa, 28.05. 8:10 14 3 - 240° SW
Sa, 28.05. 8:00 13 3 24 240° SW
Sa, 28.05. 7:30 11 2 22 250° W
Sa, 28.05. 7:00 7 2 18 240° SW
Sa, 28.05. 6:30 9 2 19 260° W
Sa, 28.05. 6:00 9 2 19 260° W
Ortszeit Untergrenze Bedeckung Gattung
total tief tief mittel hoch
Sa, 28.05. 8:00 9000 m 1/8 0/8 - - -
Sa, 28.05. 2:00 10500 m 8/8 0/8 - - -
Fr, 27.05. 20:00 10500 m 8/8 0/8 - - -
Fr, 27.05. 14:00 870 m 8/8 8/8 - - -
Fr, 27.05. 8:00 930 m 8/8 2/8 - - -
Fr, 27.05. 2:00 9000 m 8/8 0/8 - - -
Do, 26.05. 20:00 1800 m 8/8 5/8 - - -
Do, 26.05. 14:00 1500 m 5/8 5/8 - - -
Ortszeit Bedeckungsgrad in Achtel und Wolkenuntergrenze
Sa, 28.05. 9:00 6(1200m) 6(1500m)
Sa, 28.05. 8:50 6(1200m) 6(1500m)
Sa, 28.05. 8:40 4
Sa, 28.05. 8:30 1(9000m)
Sa, 28.05. 8:20 1(9000m)
Sa, 28.05. 8:10 1
Sa, 28.05. 8:00 1(9000m)
Sa, 28.05. 7:30 4(1260m)
Sa, 28.05. 7:00 2(1290m) 4(8700m) 7(9000m)
Sa, 28.05. 6:30 7(8700m) 8(9000m) 8(9000m)
Sa, 28.05. 6:00 7(8400m) 8(9000m)
Ortszeit Luftdruck NN (hPa) Tendenz (hPa in 3 Std.)
Sa, 28.05. 8:00 1021 + 0,4
Sa, 28.05. 2:00 1022 + 0,2
Fr, 27.05. 20:00 1019 + 0,1
Fr, 27.05. 14:00 1020 - 0,2
Fr, 27.05. 8:00 1020 - 0,1
Fr, 27.05. 2:00 1021 - 0,4
Do, 26.05. 20:00 1021 - 0,6
Do, 26.05. 14:00 1023 + 0,4
Ortszeit Luftdruck NN (hPa) Tendenz (hPa in 3 Std.)
Sa, 28.05. 9:00 1021 + 0,2
Sa, 28.05. 8:50 1021 keine Meldung
Sa, 28.05. 8:40 1021 keine Meldung
Sa, 28.05. 8:30 1021 + 0,2
Sa, 28.05. 8:20 1021 keine Meldung
Sa, 28.05. 8:10 1021 keine Meldung
Sa, 28.05. 8:00 1021 + 0,4
Sa, 28.05. 7:30 1021 + 0,3
Sa, 28.05. 7:00 1021 + 0,1
Sa, 28.05. 6:30 1021 - 0,3
Sa, 28.05. 6:00 1021 - 0,4
Ortszeit Schneehöhe (cm)
Sa, 28.05. 8:00 0
Sa, 28.05. 2:00 0
Fr, 27.05. 20:00 0
Fr, 27.05. 14:00 0
Fr, 27.05. 8:00 0
Fr, 27.05. 2:00 0
Do, 26.05. 20:00 0
Do, 26.05. 14:00 0
Ortszeit Schneehöhe (cm)
Sa, 28.05. 9:00 0
Sa, 28.05. 8:50 0
Sa, 28.05. 8:40 0
Sa, 28.05. 8:30 0
Sa, 28.05. 8:20 0
Sa, 28.05. 8:10 0
Sa, 28.05. 8:00 0
Sa, 28.05. 7:30 0
Sa, 28.05. 7:00 0
Sa, 28.05. 6:30 0
Sa, 28.05. 6:00 0
Link zu dieser Seite / Seite empfehlen

Das Wetter in ...